Terminal Aerodrome Forecast
Issued by NWS San Angelo, TX

Home | Current Version | Previous Version | Text Only | Print | Product List | Glossary On
Versions: 1 2 3 4 5 6 7 8 9 10 11 12
000
FTUS44 KSJT 101100
TAFSJT
TAF
KSJT 101121Z 1012/1112 18008KT P6SM SKC
     FM101800 16011G18KT P6SM FEW060 SCT250
     FM110100 16010KT P6SM FEW250=

USA.gov is the U.S. government's official web portal to all federal, state and local government web resources and services.